In Rescue
 
Open Full Screen Window  High Contrast Mode
December 15, 2019 6:47 PM CST
Weather Information
Wind Direction
  ---
Wind Speed
  00 kt (0 mph)
Wind Gust
  00 kt (0 mph)
Altimeter
30.13 in
Visibility
10 SM
Temperature
-11° C
12° F
Dewpoint
-16° C
F
Humidity
67%
1hr Rain Fall
00.00 in.
24hr Rain Fall
00.00 in.
Sky Condition
Broken @ 11,000 ft
VFR

METAR KONA 160047Z AUTO 00000KT 10SM BKN110 M11/M16 A3013 RMK AO2

FAA Disclaimer: The data displayed is for advisory purposes only and is not to be used for flight planning or operations.